createdAt,value
2018-07-23T00:01:05.190Z,96683.41
2018-07-23T00:03:33.360Z,96689.62
2018-07-23T00:06:01.416Z,96684.48
2018-07-23T00:08:29.390Z,96685.26
2018-07-23T00:10:57.628Z,96681.48
2018-07-23T00:13:25.620Z,96690.30
2018-07-23T00:15:53.696Z,96685.16
2018-07-23T00:18:21.890Z,96689.16
2018-07-23T00:20:49.845Z,96691.14
2018-07-23T00:23:17.825Z,96698.10
2018-07-23T00:25:45.760Z,96701.00
2018-07-23T00:28:13.751Z,96700.77
2018-07-23T00:30:41.924Z,96694.75
2018-07-23T00:33:09.904Z,96689.84
2018-07-23T00:35:37.964Z,96693.73
2018-07-23T00:38:06.035Z,96686.45
2018-07-23T00:40:34.109Z,96696.05
2018-07-23T00:43:02.075Z,96697.41
2018-07-23T00:45:30.152Z,96697.35
2018-07-23T00:47:58.120Z,96701.95
2018-07-23T00:50:26.192Z,96696.86
2018-07-23T00:52:54.152Z,96695.50
2018-07-23T00:55:22.160Z,96689.45
2018-07-23T00:57:50.196Z,96681.88
2018-07-23T01:00:18.282Z,96682.27
2018-07-23T01:02:46.601Z,96674.16
2018-07-23T01:05:14.709Z,96680.80
2018-07-23T01:07:42.691Z,96683.33
2018-07-23T01:10:10.759Z,96682.26
2018-07-23T01:12:38.727Z,96686.63
2018-07-23T01:15:06.896Z,96690.98
2018-07-23T01:17:34.879Z,96688.61
2018-07-23T01:20:03.152Z,96692.37
2018-07-23T01:22:31.092Z,96689.61
2018-07-23T01:24:59.191Z,96689.27
2018-07-23T01:27:27.282Z,96692.69
2018-07-23T01:29:55.220Z,96692.98
2018-07-23T01:32:23.236Z,96686.18
2018-07-23T01:34:51.319Z,96685.17
2018-07-23T01:37:19.446Z,96686.30
2018-07-23T01:39:47.412Z,96683.34
2018-07-23T01:42:15.376Z,96688.00
2018-07-23T01:44:43.377Z,96689.27
2018-07-23T01:47:11.491Z,96689.53
2018-07-23T01:49:39.497Z,96686.93
2018-07-23T01:52:07.708Z,96684.06
2018-07-23T01:54:35.723Z,96683.34
2018-07-23T01:57:03.905Z,96685.92
2018-07-23T01:59:31.971Z,96681.81
2018-07-23T02:01:59.951Z,96690.57
2018-07-23T02:04:27.907Z,96692.14
2018-07-23T02:06:55.865Z,96691.13
2018-07-23T02:09:23.948Z,96689.85
2018-07-23T02:11:52.132Z,96695.90
2018-07-23T02:14:20.282Z,96693.53
2018-07-23T02:16:48.268Z,96691.91
2018-07-23T02:19:16.235Z,96691.03
2018-07-23T02:21:44.212Z,96689.61
2018-07-23T02:24:12.169Z,96693.28
2018-07-23T02:26:40.244Z,96690.45
2018-07-23T02:29:08.212Z,96685.30
2018-07-23T02:31:36.185Z,96681.20
2018-07-23T02:34:04.357Z,96681.73
2018-07-23T02:36:32.332Z,96679.13
2018-07-23T02:39:00.291Z,96684.69
2018-07-23T02:41:28.373Z,96687.30
2018-07-23T02:43:56.336Z,96690.68
2018-07-23T02:46:24.506Z,96690.06
2018-07-23T02:48:52.477Z,96698.10
2018-07-23T02:51:20.673Z,96692.56
2018-07-23T02:53:48.588Z,96696.73
2018-07-23T02:56:16.688Z,96700.37
2018-07-23T02:58:44.660Z,96702.91
2018-07-23T03:01:12.730Z,96698.55
2018-07-23T03:03:40.702Z,96703.46
2018-07-23T03:06:08.841Z,96701.15
2018-07-23T03:08:36.844Z,96702.39
2018-07-23T03:11:04.903Z,96698.66
2018-07-23T03:13:32.964Z,96706.75
2018-07-23T03:16:01.059Z,96710.72
2018-07-23T03:18:29.037Z,96706.46
2018-07-23T03:20:57.092Z,96714.85
2018-07-23T03:23:25.161Z,96717.69
2018-07-23T03:25:53.135Z,96716.47
2018-07-23T03:28:21.199Z,96724.05
2018-07-23T03:30:49.171Z,96721.19
2018-07-23T03:33:17.132Z,96726.66
2018-07-23T03:35:45.171Z,96728.41
2018-07-23T03:38:13.191Z,96729.72
2018-07-23T03:40:41.248Z,96732.48
2018-07-23T03:43:09.465Z,96733.92
2018-07-23T03:45:37.693Z,96742.18
2018-07-23T03:48:06.397Z,96740.97
2018-07-23T03:50:34.481Z,96746.41
2018-07-23T03:53:02.629Z,96743.86
2018-07-23T03:55:30.704Z,96749.59
2018-07-23T03:57:58.872Z,96741.26
2018-07-23T04:00:27.151Z,96747.70
2018-07-23T04:02:55.128Z,96749.23
2018-07-23T04:05:23.295Z,96750.59
2018-07-23T04:07:51.264Z,96748.05
2018-07-23T04:10:19.343Z,96751.23
2018-07-23T04:12:47.405Z,96756.73
2018-07-23T04:15:15.604Z,96757.05
2018-07-23T04:17:48.116Z,96760.08
2018-07-23T04:20:16.113Z,96766.44
2018-07-23T04:22:44.322Z,96761.78
2018-07-23T04:25:12.367Z,96770.58
2018-07-23T04:27:40.353Z,96764.73
2018-07-23T04:30:08.480Z,96774.31
2018-07-23T04:32:37.291Z,96780.52
2018-07-23T04:35:05.236Z,96783.36
2018-07-23T04:37:33.436Z,96778.84
2018-07-23T04:40:01.404Z,96778.38
2018-07-23T04:42:29.372Z,96778.33
2018-07-23T04:44:57.543Z,96780.70
2018-07-23T04:47:25.844Z,96775.17
2018-07-23T04:49:53.879Z,96780.55
2018-07-23T04:52:21.770Z,96782.58
2018-07-23T04:54:49.728Z,96787.69
2018-07-23T04:57:18.015Z,96789.54
2018-07-23T04:59:45.975Z,96781.41
2018-07-23T05:02:13.960Z,96788.09
2018-07-23T05:04:41.913Z,96790.87
2018-07-23T05:07:09.860Z,96785.51
2018-07-23T05:09:38.068Z,96789.91
2018-07-23T05:12:07.004Z,96790.82
2018-07-23T05:14:35.044Z,96798.53
2018-07-23T05:17:03.313Z,96803.55
2018-07-23T05:19:31.293Z,96801.64
2018-07-23T05:21:59.774Z,96798.13
2018-07-23T05:24:28.254Z,96801.82
2018-07-23T05:26:57.309Z,96798.02
2018-07-23T05:29:25.836Z,96803.76
2018-07-23T05:31:53.960Z,96800.97
2018-07-23T05:34:21.943Z,96805.41
2018-07-23T05:36:49.928Z,96795.55
2018-07-23T05:39:18.201Z,96798.84
2018-07-23T05:41:46.379Z,96798.55
2018-07-23T05:44:14.411Z,96804.77
2018-07-23T05:46:42.410Z,96805.91
2018-07-23T05:49:10.483Z,96803.45
2018-07-23T05:51:38.450Z,96803.00
2018-07-23T05:54:06.931Z,96810.06
2018-07-23T05:56:35.072Z,96808.98
2018-07-23T05:59:03.184Z,96807.29
2018-07-23T06:01:31.624Z,96810.98
2018-07-23T06:04:00.231Z,96812.88
2018-07-23T06:06:28.258Z,96815.16
2018-07-23T06:08:56.249Z,96817.63
2018-07-23T06:11:24.228Z,96823.30
2018-07-23T06:13:52.412Z,96811.61
2018-07-23T06:16:20.276Z,96815.64
2018-07-23T06:18:48.252Z,96821.95
2018-07-23T06:21:16.223Z,96825.02
2018-07-23T06:23:44.288Z,96824.19
2018-07-23T06:26:12.375Z,96828.48
2018-07-23T06:28:40.537Z,96831.76
2018-07-23T06:31:08.620Z,96832.23
2018-07-23T06:33:36.572Z,96835.78
2018-07-23T06:36:04.752Z,96841.08
2018-07-23T06:38:32.964Z,96843.02
2018-07-23T06:41:01.006Z,96837.71
2018-07-23T06:43:28.924Z,96840.17
2018-07-23T06:45:57.012Z,96844.91
2018-07-23T06:48:25.012Z,96843.31
2018-07-23T06:50:52.994Z,96848.00
2018-07-23T06:53:21.044Z,96849.53
2018-07-23T06:55:48.856Z,96854.13
2018-07-23T06:58:16.671Z,96853.30
2018-07-23T07:00:44.645Z,96848.69
2018-07-23T07:03:12.716Z,96853.87
2018-07-23T07:05:40.653Z,96848.55
2018-07-23T07:08:08.669Z,96852.65
2018-07-23T07:10:36.628Z,96854.55
2018-07-23T07:13:04.600Z,96859.06
2018-07-23T07:15:32.759Z,96855.95
2018-07-23T07:18:00.736Z,96862.27
2018-07-23T07:20:28.708Z,96860.83
2018-07-23T07:22:56.783Z,96861.26
2018-07-23T07:25:24.796Z,96859.87
2018-07-23T07:27:52.817Z,96862.55
2018-07-23T07:30:20.887Z,96862.57
2018-07-23T07:32:48.829Z,96864.46
2018-07-23T07:35:16.823Z,96864.18
2018-07-23T07:37:44.891Z,96866.50
2018-07-23T07:40:12.852Z,96867.13
2018-07-23T07:42:40.829Z,96867.39
2018-07-23T07:45:08.902Z,96869.00
2018-07-23T07:47:36.873Z,96865.70
2018-07-23T07:50:05.239Z,96866.33
2018-07-23T07:52:33.213Z,96870.69
2018-07-23T07:55:01.180Z,96871.36
2018-07-23T07:57:29.159Z,96872.97
2018-07-23T07:59:57.327Z,96880.62
2018-07-23T08:02:25.379Z,96874.67
2018-07-23T08:04:53.376Z,96873.50
2018-07-23T08:07:21.306Z,96875.37
2018-07-23T08:09:49.280Z,96868.83
2018-07-23T08:12:17.263Z,96870.31
2018-07-23T08:14:45.458Z,96862.72
2018-07-23T08:17:13.503Z,96862.64
2018-07-23T08:19:41.483Z,96863.84
2018-07-23T08:22:09.427Z,96870.02
2018-07-23T08:24:37.504Z,96866.77
2018-07-23T08:27:05.915Z,96868.16
2018-07-23T08:29:34.183Z,96864.98
2018-07-23T08:32:02.704Z,96867.64
2018-07-23T08:34:30.865Z,96870.76
2018-07-23T08:36:59.108Z,96877.68
2018-07-23T08:39:27.165Z,96883.80
2018-07-23T08:41:55.157Z,96885.32
2018-07-23T08:44:23.128Z,96887.31
2018-07-23T08:46:51.093Z,96888.88
2018-07-23T08:49:19.163Z,96885.37
2018-07-23T08:51:47.127Z,96887.77
2018-07-23T08:54:15.668Z,96889.59
2018-07-23T08:56:43.921Z,96883.75
2018-07-23T08:59:11.961Z,96882.33
2018-07-23T09:01:39.900Z,96878.34
2018-07-23T09:04:08.081Z,96869.16
2018-07-23T09:06:36.164Z,96872.28
2018-07-23T09:09:06.186Z,96875.62
2018-07-23T09:11:34.260Z,96869.64
2018-07-23T09:14:02.541Z,96875.41
2018-07-23T09:16:30.588Z,96870.42
2018-07-23T09:18:58.567Z,96877.94
2018-07-23T09:21:26.632Z,96873.88
2018-07-23T09:23:54.681Z,96877.14
2018-07-23T09:26:22.564Z,96879.98
2018-07-23T09:28:50.556Z,96874.81
2018-07-23T09:31:18.557Z,96866.69
2018-07-23T09:33:46.497Z,96869.95
2018-07-23T09:36:14.428Z,96870.20
2018-07-23T09:38:42.428Z,96872.77
2018-07-23T09:41:10.520Z,96875.00
2018-07-23T09:43:38.472Z,96870.27
2018-07-23T09:46:06.454Z,96871.46
2018-07-23T09:48:34.732Z,96871.91
2018-07-23T09:51:02.983Z,96873.02
2018-07-23T09:53:30.961Z,96866.23
2018-07-23T09:55:58.920Z,96870.97
2018-07-23T09:58:27.035Z,96871.74
2018-07-23T10:01:00.660Z,96867.23
2018-07-23T10:03:28.748Z,96871.86
2018-07-23T10:05:56.798Z,96874.50
2018-07-23T10:08:24.804Z,96870.57
2018-07-23T10:10:52.885Z,96870.88
2018-07-23T10:13:20.856Z,96869.91
2018-07-23T10:15:48.826Z,96861.45
2018-07-23T10:18:16.779Z,96868.22
2018-07-23T10:20:44.768Z,96862.95
2018-07-23T10:23:12.715Z,96860.39
2018-07-23T10:25:40.701Z,96856.17
2018-07-23T10:28:08.649Z,96854.78
2018-07-23T10:30:37.037Z,96851.27
2018-07-23T10:33:05.095Z,96849.83
2018-07-23T10:35:33.080Z,96858.52
2018-07-23T10:38:01.164Z,96853.30
2018-07-23T10:40:29.116Z,96850.89
2018-07-23T10:42:57.085Z,96853.73
2018-07-23T10:45:25.161Z,96851.14
2018-07-23T10:47:53.199Z,96845.63
2018-07-23T10:50:21.300Z,96840.75
2018-07-23T10:52:49.268Z,96846.92
2018-07-23T10:55:17.339Z,96840.55
2018-07-23T10:57:45.424Z,96844.10
2018-07-23T11:00:13.382Z,96842.45
2018-07-23T11:02:41.376Z,96838.53
2018-07-23T11:05:09.932Z,96839.53
2018-07-23T11:07:38.004Z,96839.11
2018-07-23T11:10:07.145Z,96846.66
2018-07-23T11:12:35.561Z,96841.81
2018-07-23T11:15:04.489Z,96840.55
2018-07-23T11:17:32.411Z,96835.81
2018-07-23T11:20:00.413Z,96833.02
2018-07-23T11:22:28.476Z,96831.84
2018-07-23T11:24:56.462Z,96828.53
2018-07-23T11:27:24.727Z,96821.77
2018-07-23T11:29:52.720Z,96827.77
2018-07-23T11:32:20.860Z,96828.41
2018-07-23T11:34:48.856Z,96819.91
2018-07-23T11:37:16.900Z,96820.41
2018-07-23T11:39:44.980Z,96823.33
2018-07-23T11:42:12.943Z,96826.32
2018-07-23T11:44:41.129Z,96814.08
2018-07-23T11:47:09.081Z,96818.25
2018-07-23T11:49:37.104Z,96812.02
2018-07-23T11:52:05.137Z,96812.12
2018-07-23T11:54:33.108Z,96816.97
2018-07-23T11:57:01.088Z,96820.58
2018-07-23T11:59:29.064Z,96813.77
2018-07-23T12:01:57.160Z,96817.42
2018-07-23T12:04:25.221Z,96819.72
2018-07-23T12:06:53.258Z,96821.28
2018-07-23T12:09:21.196Z,96822.59
2018-07-23T12:11:49.203Z,96821.19
2018-07-23T12:14:17.360Z,96823.37
2018-07-23T12:16:45.427Z,96814.31
2018-07-23T12:19:13.409Z,96804.72
2018-07-23T12:21:41.581Z,96814.22
2018-07-23T12:24:09.669Z,96801.48
2018-07-23T12:26:37.923Z,96807.72
2018-07-23T12:29:05.888Z,96803.64
2018-07-23T12:31:34.024Z,96802.41
2018-07-23T12:34:02.085Z,96796.11
2018-07-23T12:36:30.308Z,96796.79
2018-07-23T12:38:58.387Z,96797.27
2018-07-23T12:41:26.349Z,96796.06
2018-07-23T12:43:54.301Z,96796.42
2018-07-23T12:46:22.255Z,96794.68
2018-07-23T12:48:50.255Z,96789.19
2018-07-23T12:51:18.321Z,96787.25
2018-07-23T12:53:46.409Z,96788.75
2018-07-23T12:56:14.544Z,96790.43
2018-07-23T12:58:42.545Z,96791.25
2018-07-23T13:01:10.508Z,96793.23
2018-07-23T13:03:38.484Z,96791.71
2018-07-23T13:06:06.451Z,96787.13
2018-07-23T13:08:34.522Z,96790.66
2018-07-23T13:11:02.484Z,96794.88
2018-07-23T13:13:30.467Z,96792.06
2018-07-23T13:15:58.704Z,96787.98
2018-07-23T13:18:26.784Z,96789.34
2018-07-23T13:20:54.764Z,96790.19
2018-07-23T13:23:22.749Z,96787.69
2018-07-23T13:25:50.766Z,96786.52
2018-07-23T13:28:18.688Z,96788.53
2018-07-23T13:30:46.761Z,96783.48
2018-07-23T13:33:14.921Z,96779.69
2018-07-23T13:35:42.898Z,96778.39
2018-07-23T13:38:11.153Z,96774.86
2018-07-23T13:40:39.128Z,96772.86
2018-07-23T13:43:07.316Z,96773.85
2018-07-23T13:45:35.282Z,96771.02
2018-07-23T13:48:03.330Z,96776.11
2018-07-23T13:50:31.325Z,96774.66
2018-07-23T13:52:59.277Z,96766.11
2018-07-23T13:55:27.252Z,96759.06
2018-07-23T13:57:55.245Z,96761.30
2018-07-23T14:00:23.171Z,96758.64
2018-07-23T14:02:51.144Z,96760.22
2018-07-23T14:05:19.235Z,96758.89
2018-07-23T14:07:47.207Z,96762.54
2018-07-23T14:10:15.144Z,96760.80
2018-07-23T14:12:43.248Z,96759.53
2018-07-23T14:15:11.376Z,96759.78
2018-07-23T14:17:39.379Z,96763.04
2018-07-23T14:20:07.563Z,96759.05
2018-07-23T14:22:35.624Z,96749.75
2018-07-23T14:25:04.114Z,96752.92
2018-07-23T14:27:32.161Z,96747.89
2018-07-23T14:30:00.266Z,96740.80
2018-07-23T14:32:28.509Z,96734.78
2018-07-23T14:34:56.593Z,96737.88
2018-07-23T14:37:24.676Z,96739.00
2018-07-23T14:39:52.646Z,96731.42
2018-07-23T14:42:20.887Z,96737.17
2018-07-23T14:44:48.888Z,96733.20
2018-07-23T14:47:17.087Z,96730.20
2018-07-23T14:49:45.361Z,96730.39
2018-07-23T14:52:13.341Z,96730.13
2018-07-23T14:54:41.364Z,96727.69
2018-07-23T14:57:09.444Z,96725.73
2018-07-23T14:59:37.412Z,96721.64
2018-07-23T15:02:05.592Z,96724.14
2018-07-23T15:04:33.556Z,96719.39
2018-07-23T15:07:01.531Z,96725.95
2018-07-23T15:09:29.490Z,96723.77
2018-07-23T15:11:57.767Z,96724.30
2018-07-23T15:14:25.746Z,96725.02
2018-07-23T15:16:53.701Z,96715.64
2018-07-23T15:19:21.883Z,96715.59
2018-07-23T15:21:49.950Z,96716.50
2018-07-23T15:24:18.025Z,96718.22
2018-07-23T15:26:45.999Z,96712.52
2018-07-23T15:29:13.966Z,96715.27
2018-07-23T15:31:41.924Z,96712.70
2018-07-23T15:34:10.077Z,96720.11
2018-07-23T15:36:38.228Z,96719.25
2018-07-23T15:39:08.628Z,96721.00
2018-07-23T15:41:36.773Z,96719.86
2018-07-23T15:44:05.157Z,96716.69
2018-07-23T15:46:33.304Z,96714.81
2018-07-23T15:49:01.304Z,96717.60
2018-07-23T15:51:29.348Z,96711.16
2018-07-23T15:53:57.759Z,96708.69
2018-07-23T15:56:25.915Z,96709.32
2018-07-23T15:58:53.883Z,96703.77
2018-07-23T16:01:21.848Z,96708.66
2018-07-23T16:03:49.800Z,96712.05
2018-07-23T16:06:17.784Z,96706.76
2018-07-23T16:08:45.759Z,96710.75
2018-07-23T16:11:13.823Z,96710.80
2018-07-23T16:13:41.802Z,96712.53
2018-07-23T16:16:09.768Z,96711.01
2018-07-23T16:18:37.846Z,96709.14
2018-07-23T16:21:06.104Z,96704.42
2018-07-23T16:23:34.080Z,96709.81
2018-07-23T16:26:02.051Z,96711.09
2018-07-23T16:28:30.163Z,96706.52
2018-07-23T16:30:58.307Z,96705.24
2018-07-23T16:33:26.299Z,96703.37
2018-07-23T16:35:54.332Z,96704.09
2018-07-23T16:38:22.291Z,96708.53
2018-07-23T16:40:50.370Z,96699.55
2018-07-23T16:43:18.345Z,96702.17
2018-07-23T16:45:46.360Z,96704.66
2018-07-23T16:48:14.488Z,96702.06
2018-07-23T16:50:42.535Z,96705.95
2018-07-23T16:53:10.599Z,96699.85
2018-07-23T16:55:38.727Z,96699.47
2018-07-23T16:58:06.771Z,96698.70
2018-07-23T17:00:34.766Z,96699.91
2018-07-23T17:03:02.810Z,96700.30
2018-07-23T17:05:30.793Z,96701.27
2018-07-23T17:07:58.819Z,96708.94
2018-07-23T17:10:26.799Z,96703.27
2018-07-23T17:12:54.986Z,96705.29
2018-07-23T17:15:22.962Z,96696.11
2018-07-23T17:17:50.969Z,96708.83
2018-07-23T17:20:19.102Z,96706.73
2018-07-23T17:22:47.114Z,96713.69
2018-07-23T17:25:15.143Z,96711.81
2018-07-23T17:27:43.307Z,96715.70
2018-07-23T17:30:11.698Z,96714.64
2018-07-23T17:32:40.817Z,96718.52
2018-07-23T17:35:10.028Z,96718.31
2018-07-23T17:37:38.186Z,96717.09
2018-07-23T17:40:06.519Z,96719.95
2018-07-23T17:42:34.488Z,96716.30
2018-07-23T17:45:02.781Z,96716.63
2018-07-23T17:47:30.747Z,96720.50
2018-07-23T17:49:59.238Z,96719.85
2018-07-23T17:52:27.209Z,96721.70
2018-07-23T17:54:55.474Z,96719.98
2018-07-23T17:57:24.027Z,96720.03
2018-07-23T17:59:52.064Z,96716.59
2018-07-23T18:02:20.380Z,96716.44
2018-07-23T18:04:48.619Z,96720.89
2018-07-23T18:07:16.673Z,96729.02
2018-07-23T18:09:44.691Z,96731.45
2018-07-23T18:12:12.827Z,96727.92
2018-07-23T18:14:40.955Z,96725.66
2018-07-23T18:17:09.056Z,96729.80
2018-07-23T18:19:37.271Z,96724.51
2018-07-23T18:22:05.287Z,96724.95
2018-07-23T18:24:33.362Z,96732.22
2018-07-23T18:27:01.656Z,96738.80
2018-07-23T18:29:29.827Z,96730.63
2018-07-23T18:31:58.089Z,96739.94
2018-07-23T18:34:26.170Z,96740.56
2018-07-23T18:36:54.265Z,96741.64
2018-07-23T18:39:22.299Z,96737.91
2018-07-23T18:41:50.287Z,96745.39
2018-07-23T18:44:18.472Z,96737.63
2018-07-23T18:46:46.407Z,96744.04
2018-07-23T18:49:26.987Z,96743.55
2018-07-23T18:51:55.496Z,96741.61
2018-07-23T18:54:24.676Z,96752.30
2018-07-23T18:56:56.144Z,96750.23
2018-07-23T19:01:52.533Z,96758.20
2018-07-23T19:04:20.624Z,96760.31
2018-07-23T19:06:49.039Z,96764.20
2018-07-23T19:09:18.135Z,96764.50
2018-07-23T19:33:19.894Z,96791.98
2018-07-23T19:35:49.982Z,96796.14
2018-07-23T19:38:19.716Z,96797.70
2018-07-23T19:40:49.468Z,96803.92
2018-07-23T19:43:19.134Z,96801.03
2018-07-23T19:45:48.708Z,96802.88
2018-07-23T19:48:18.254Z,96808.59
2018-07-23T19:50:47.805Z,96809.97
2018-07-23T19:53:17.639Z,96808.34
2018-07-23T19:55:47.234Z,96810.20
2018-07-23T19:58:17.028Z,96808.55
2018-07-23T20:00:46.682Z,96813.16
2018-07-23T20:03:16.330Z,96814.30
2018-07-23T20:05:45.954Z,96816.72
2018-07-23T20:08:15.580Z,96813.43
2018-07-23T20:10:45.159Z,96810.14
2018-07-23T20:13:14.841Z,96812.73
2018-07-23T20:15:44.485Z,96819.28
2018-07-23T20:18:14.412Z,96818.60
2018-07-23T20:20:44.270Z,96816.08
2018-07-23T20:23:13.887Z,96805.04
2018-07-23T20:25:43.544Z,96807.84
2018-07-23T20:28:13.221Z,96808.81
2018-07-23T20:30:42.782Z,96811.86
2018-07-23T20:33:12.387Z,96806.81
2018-07-23T20:35:42.038Z,96803.62
2018-07-23T20:38:11.653Z,96805.77
2018-07-23T20:40:41.328Z,96802.48
2018-07-23T20:43:10.944Z,96805.28
2018-07-23T20:45:40.644Z,96797.52
2018-07-23T20:48:10.342Z,96791.94
2018-07-23T20:50:39.897Z,96797.38
2018-07-23T20:53:09.481Z,96799.95
2018-07-23T20:55:39.118Z,96797.77
2018-07-23T20:58:08.734Z,96796.77
2018-07-23T21:00:38.418Z,96794.05
2018-07-23T21:03:08.237Z,96789.77
2018-07-23T21:05:37.993Z,96786.46
2018-07-23T21:08:07.578Z,96786.75
2018-07-23T21:10:37.215Z,96788.48
2018-07-23T21:13:07.124Z,96790.88
2018-07-23T21:15:36.722Z,96789.12
2018-07-23T21:18:06.683Z,96786.45
2018-07-23T21:20:36.445Z,96785.06
2018-07-23T21:23:06.325Z,96780.26
2018-07-23T21:25:35.991Z,96778.29
2018-07-23T21:28:05.748Z,96780.12
2018-07-23T21:30:35.340Z,96776.62
2018-07-23T21:33:05.069Z,96780.48
2018-07-23T21:35:34.665Z,96776.20
2018-07-23T21:38:04.341Z,96778.48
2018-07-23T21:40:34.011Z,96779.64
2018-07-23T21:43:04.022Z,96784.87
2018-07-23T21:45:33.610Z,96780.14
2018-07-23T21:48:03.193Z,96785.22
2018-07-23T21:50:32.944Z,96779.00
2018-07-23T21:53:02.740Z,96782.77
2018-07-23T21:55:32.393Z,96780.34
2018-07-23T21:58:02.018Z,96783.71
2018-07-23T22:00:32.690Z,96782.81
2018-07-23T22:03:02.354Z,96783.45
2018-07-23T22:05:31.929Z,96789.75
2018-07-23T22:08:01.508Z,96791.89
2018-07-23T22:10:31.114Z,96790.24
2018-07-23T22:13:00.689Z,96784.54
2018-07-23T22:15:30.326Z,96788.79
2018-07-23T22:17:59.935Z,96782.86
2018-07-23T22:20:29.670Z,96782.97
2018-07-23T22:22:59.261Z,96778.91
2018-07-23T22:25:28.878Z,96776.75
2018-07-23T22:27:58.490Z,96779.14
2018-07-23T22:30:28.082Z,96776.37
2018-07-23T22:32:57.754Z,96780.14
2018-07-23T22:35:27.373Z,96778.16
2018-07-23T22:37:56.938Z,96777.72
2018-07-23T22:40:26.522Z,96777.34
2018-07-23T22:42:56.049Z,96778.80
2018-07-23T22:45:25.605Z,96776.51
2018-07-23T22:47:55.253Z,96775.58
2018-07-23T22:50:24.896Z,96775.69
2018-07-23T22:52:54.461Z,96771.52
2018-07-23T22:55:24.031Z,96768.16
2018-07-23T22:57:53.581Z,96763.79
2018-07-23T23:00:23.138Z,96765.47
2018-07-23T23:02:52.739Z,96765.87
2018-07-23T23:05:22.291Z,96766.39
2018-07-23T23:07:51.936Z,96763.44
2018-07-23T23:10:21.501Z,96763.28
2018-07-23T23:12:51.098Z,96764.95
2018-07-23T23:15:20.685Z,96759.05
2018-07-23T23:17:50.301Z,96766.50
2018-07-23T23:20:19.874Z,96763.66
2018-07-23T23:22:49.451Z,96757.77
2018-07-23T23:25:19.136Z,96762.30
2018-07-23T23:27:48.688Z,96758.98
2018-07-23T23:30:18.240Z,96753.55
2018-07-23T23:32:47.977Z,96748.95
2018-07-23T23:35:17.551Z,96750.88
2018-07-23T23:37:47.188Z,96749.09
2018-07-23T23:40:17.093Z,96754.08
2018-07-23T23:42:46.767Z,96752.25
2018-07-23T23:45:16.425Z,96747.34
2018-07-23T23:47:46.026Z,96744.67
2018-07-23T23:50:15.674Z,96744.25
2018-07-23T23:52:45.386Z,96738.03
2018-07-23T23:55:14.954Z,96739.63
2018-07-23T23:57:44.506Z,96742.17
